Архив погоды в Мензелинске

Метеограмма Мензелинск
Воскресенье, 22 Июля
Время местн. Темп Ветер Видим Явления Облачность нижн/средн/верх Атм. давл. Влжн Точка росы ВНГО R Сост. почвы Tg s
Напр Скр Прв ур.ст ур.м изм
03:00 +14.9° В 4 - 10 км - ясно 753 763 +0.4 68% +9.1° более 2.5 км - - - -
00:00 +17.2° В 4 - 10 км - переменная облачность 752 762 +0.3 65% +10.6° - - - - -
Суббота, 21 Июля
Время местн. Темп Ветер Видим Явления Облачность нижн/средн/верх Атм. давл. Влжн Точка росы ВНГО R Сост. почвы Tg s
Напр Скр Прв ур.ст ур.м изм
21:00 +20.2° В 4 - 10 км - облачно с прояснениями 752 762 +0.8 57% +11.3° 1 км - - - -
18:00 +22° В 5 11 10 км - преимущественно облачно 751 761 -0.2 53% +12.1° 1.5 км 0 - - -
15:00 +22.5° В 5 10 10 км - облачно 751 761 0 55% +12.9° 1 км - - - -
12:00 +21.4° В 6 10 10 км - облачно 751 761 +0.5 60% +13.4° 1 км - - - -
09:00 +19.8° В 4 - 10 км - облачно 751 761 +0.4 67% +13.5° 1 км - - - -
06:00 +18° В 5 10 10 км - облачно 750 760 +0.2 73% +13.1° 1 км 0 Сухая (без трещин) - -
03:00 +17.4° В 5 - 10 км - облачно 750 760 +0.3 75% +13° - - - - -
00:00 +19.7° В 5 10 10 км - облачно 750 760 +0.1 72% +14.5° - - - - -
Пятница, 20 Июля
Время местн. Темп Ветер Видим Явления Облачность нижн/средн/верх Атм. давл. Влжн Точка росы ВНГО R Сост. почвы Tg s
Напр Скр Прв ур.ст ур.м изм
21:00 +20.7° В 5 10 10 км - облачно 750 760 +0.2 71% +15.2° - - - - -
18:00 +21.9° В 5 - 10 км - облачно 750 759 +0.4 68% +15.8° 1 км 0 - - -
15:00 +22.6° В 6 - 10 км - облачно с прояснениями 749 759 +0.1 68% +16.4° 1 км - - - -
12:00 +22.3° В 2 - 10 км - облачно 749 759 +0.4 75% +17.7° 1 км - - - -
09:00 +20.4° В 3 - 10 км - облачно 749 759 +0.2 79% +16.7° 1 км - - - -
06:00 +18.7° В 3 - 10 км - облачно 749 759 +0.5 84% +15.9° 1 км 0 Влажная (без луж) - -
03:00 +18.5° В 3 - 10 км - облачно 748 758 0 85% +15.9° 1 км - - - -
00:00 +19.7° В 3 - 10 км - облачно с прояснениями 748 758 +0.1 79% +15.9° 1 км - - - -
Четверг, 19 Июля
Время местн. Темп Ветер Видим Явления Облачность нижн/средн/верх Атм. давл. Влжн Точка росы ВНГО R Сост. почвы Tg s
Напр Скр Прв ур.ст ур.м изм
21:00 +21.3° В 3 - 10 км - преимущественно облачно 748 758 +0.8 69% +15.4° 1 км - - - -
18:00 +23.9° В 5 - 10 км - переменная облачность 747 757 +0.3 67% +17.3° 1 км 0.3 - - -
15:00 +26° В 4 - 10 км - облачно 747 757 +0.1 60% +17.6° 1 км - - - -
12:00 +24.9° В,Ю-В 4 - 10 км - облачно 747 757 +0.5 64% +17.5° 1 км - - - -
09:00 +22.3° В 3 - 10 км - облачно 747 756 +0.6 74% +17.4° 1 км - - - -
06:00 +19.7° штиль 0 - 10 км - облачно с прояснениями 746 756 +0.8 83% +16.8° - 0 Сырая (есть малые или большие лужи) - -
03:00 +17.9° В 1 - 10 км - облачно 745 755 +0.4 89% +16.1° 1 км - - - -
00:00 +18.1° штиль 0 - 10 км - облачно 745 755 0 90% +16.4° 1 км - - - -